createdAt,value
2019-06-26T00:00:45.705Z,99896.00
2019-06-26T00:01:51.752Z,99891.00
2019-06-26T00:02:57.504Z,99892.00
2019-06-26T00:04:03.423Z,99895.00
2019-06-26T00:05:08.694Z,99896.00
2019-06-26T00:06:14.934Z,99899.00
2019-06-26T00:07:20.391Z,99896.00
2019-06-26T00:08:26.760Z,99896.00
2019-06-26T00:09:32.137Z,99883.00
2019-06-26T00:10:38.644Z,99894.00
2019-06-26T00:11:43.901Z,99899.00
2019-06-26T00:12:49.888Z,99902.00
2019-06-26T00:13:55.058Z,99900.00
2019-06-26T00:15:01.254Z,99901.00
2019-06-26T00:16:06.821Z,99896.00
2019-06-26T00:17:12.946Z,99897.00
2019-06-26T00:18:18.030Z,99901.00
2019-06-26T00:19:24.379Z,99899.00
2019-06-26T00:20:29.594Z,99906.00
2019-06-26T00:21:35.953Z,99907.00
2019-06-26T00:22:41.408Z,99906.00
2019-06-26T00:23:47.377Z,99907.00
2019-06-26T00:24:52.817Z,99908.00
2019-06-26T00:25:58.799Z,99917.00
2019-06-26T00:27:04.498Z,99920.00
2019-06-26T00:28:11.364Z,99915.00
2019-06-26T00:29:16.594Z,99914.00
2019-06-26T00:30:22.808Z,99919.00
2019-06-26T00:31:28.314Z,99916.00
2019-06-26T00:32:34.647Z,99926.00
2019-06-26T00:33:40.083Z,99918.00
2019-06-26T00:34:46.561Z,99927.00
2019-06-26T00:35:51.801Z,99921.00
2019-06-26T00:36:57.969Z,99933.00
2019-06-26T00:38:04.362Z,99928.00
2019-06-26T00:39:10.345Z,99921.00
2019-06-26T00:40:15.790Z,99928.00
2019-06-26T00:41:22.093Z,99928.00
2019-06-26T00:42:27.593Z,99927.00
2019-06-26T00:43:42.461Z,99924.00
2019-06-26T00:44:41.075Z,99928.00
2019-06-26T00:45:46.907Z,99927.00
2019-06-26T00:46:52.398Z,99926.00
2019-06-26T00:47:58.356Z,99931.00
2019-06-26T00:49:03.731Z,99925.00
2019-06-26T00:50:11.226Z,99934.00
2019-06-26T00:51:17.096Z,99936.00
2019-06-26T00:52:23.322Z,99930.00
2019-06-26T00:53:28.712Z,99938.00
2019-06-26T00:54:34.917Z,99933.00
2019-06-26T00:55:40.226Z,99938.00
2019-06-26T00:56:46.204Z,99936.00
2019-06-26T00:57:51.725Z,99940.00
2019-06-26T00:58:57.676Z,99926.00
2019-06-26T01:00:08.821Z,99937.00
2019-06-26T01:01:16.582Z,99937.00
2019-06-26T01:02:23.505Z,99940.00
2019-06-26T01:03:31.223Z,99944.00
2019-06-26T01:04:40.677Z,99935.00
2019-06-26T01:05:47.517Z,99940.00
2019-06-26T01:06:53.682Z,99944.00
2019-06-26T01:08:02.118Z,99944.00
2019-06-26T01:09:11.685Z,99944.00
2019-06-26T01:10:18.413Z,99940.00
2019-06-26T01:11:24.108Z,99947.00
2019-06-26T01:12:31.679Z,99945.00
2019-06-26T01:13:38.935Z,99946.00
2019-06-26T01:14:44.812Z,99949.00
2019-06-26T01:15:50.245Z,99944.00
2019-06-26T01:16:56.839Z,99951.00
2019-06-26T01:18:02.378Z,99944.00
2019-06-26T01:19:08.330Z,99942.00
2019-06-26T01:20:15.492Z,99943.00
2019-06-26T01:21:21.990Z,99943.00
2019-06-26T01:22:27.924Z,99945.00
2019-06-26T01:23:33.744Z,99950.00
2019-06-26T01:24:38.902Z,99946.00
2019-06-26T01:25:45.191Z,99950.00
2019-06-26T01:26:50.322Z,99952.00
2019-06-26T01:27:56.273Z,99949.00
2019-06-26T01:29:01.484Z,99953.00
2019-06-26T01:30:08.404Z,99951.00
2019-06-26T01:31:13.836Z,99956.00
2019-06-26T01:32:20.006Z,99952.00
2019-06-26T01:33:25.190Z,99953.00
2019-06-26T01:34:31.208Z,99953.00
2019-06-26T01:35:36.838Z,99950.00
2019-06-26T01:36:42.813Z,99955.00
2019-06-26T01:37:48.541Z,99953.00
2019-06-26T01:38:54.562Z,99950.00
2019-06-26T01:40:00.135Z,99951.00
2019-06-26T01:41:06.114Z,99951.00
2019-06-26T01:42:11.234Z,99947.00
2019-06-26T01:43:17.708Z,99951.00
2019-06-26T01:44:23.101Z,99947.00
2019-06-26T01:45:29.402Z,99948.00
2019-06-26T01:46:35.421Z,99950.00
2019-06-26T01:47:42.043Z,99948.00
2019-06-26T01:48:47.137Z,99952.00
2019-06-26T01:49:53.226Z,99954.00
2019-06-26T01:50:58.330Z,99955.00
2019-06-26T01:52:04.799Z,99949.00
2019-06-26T01:53:10.149Z,99946.00
2019-06-26T01:54:16.019Z,99950.00
2019-06-26T01:55:21.411Z,99959.00
2019-06-26T01:56:27.384Z,99946.00
2019-06-26T01:57:32.705Z,99953.00
2019-06-26T01:58:39.581Z,99950.00
2019-06-26T01:59:45.035Z,99948.00
2019-06-26T02:00:52.456Z,99959.00
2019-06-26T02:01:59.397Z,99958.00
2019-06-26T02:03:05.464Z,99956.00
2019-06-26T02:04:10.633Z,99951.00
2019-06-26T02:05:16.697Z,99952.00
2019-06-26T02:06:22.635Z,99958.00
2019-06-26T02:07:29.328Z,99955.00
2019-06-26T02:08:34.494Z,99965.00
2019-06-26T02:09:40.999Z,99955.00
2019-06-26T02:10:46.501Z,99956.00
2019-06-26T02:11:52.963Z,99959.00
2019-06-26T02:12:58.507Z,99966.00
2019-06-26T02:14:04.519Z,99967.00
2019-06-26T02:15:10.460Z,99970.00
2019-06-26T02:16:16.985Z,99966.00
2019-06-26T02:17:22.166Z,99968.00
2019-06-26T02:18:37.935Z,99968.00
2019-06-26T02:19:43.580Z,99968.00
2019-06-26T02:20:49.701Z,99968.00
2019-06-26T02:21:55.490Z,99971.00
2019-06-26T02:23:02.066Z,99962.00
2019-06-26T02:24:07.532Z,99954.00
2019-06-26T02:25:13.788Z,99968.00
2019-06-26T02:26:19.187Z,99972.00
2019-06-26T02:27:25.630Z,99967.00
2019-06-26T02:28:31.159Z,99968.00
2019-06-26T02:29:37.037Z,99963.00
2019-06-26T02:30:42.599Z,99968.00
2019-06-26T02:31:48.841Z,99968.00
2019-06-26T02:32:53.907Z,99968.00
2019-06-26T02:34:00.065Z,99967.00
2019-06-26T02:35:09.365Z,99965.00
2019-06-26T02:36:13.281Z,99970.00
2019-06-26T02:37:18.478Z,99963.00
2019-06-26T02:38:24.298Z,99972.00
2019-06-26T02:39:29.787Z,99968.00
2019-06-26T02:40:36.010Z,99968.00
2019-06-26T02:41:41.508Z,99980.00
2019-06-26T02:42:48.096Z,99969.00
2019-06-26T02:43:53.285Z,99968.00
2019-06-26T02:44:59.412Z,99968.00
2019-06-26T02:46:04.909Z,99973.00
2019-06-26T02:47:19.840Z,99980.00
2019-06-26T02:48:17.645Z,99972.00
2019-06-26T02:49:23.711Z,99969.00
2019-06-26T02:50:28.824Z,99982.00
2019-06-26T02:51:35.085Z,99972.00
2019-06-26T02:52:40.259Z,99968.00
2019-06-26T02:53:46.559Z,99972.00
2019-06-26T02:54:51.649Z,99971.00
2019-06-26T02:55:57.788Z,99967.00
2019-06-26T02:57:04.225Z,99973.00
2019-06-26T02:58:10.530Z,99968.00
2019-06-26T02:59:15.977Z,99965.00
2019-06-26T03:00:22.300Z,99968.00
2019-06-26T03:01:27.761Z,99973.00
2019-06-26T03:02:33.949Z,99965.00
2019-06-26T03:03:39.463Z,99970.00
2019-06-26T03:04:45.949Z,99979.00
2019-06-26T03:05:51.056Z,99975.00
2019-06-26T03:06:56.956Z,99978.00
2019-06-26T03:08:02.560Z,99978.00
2019-06-26T03:09:09.369Z,99982.00
2019-06-26T03:10:15.366Z,99981.00
2019-06-26T03:11:21.792Z,99980.00
2019-06-26T03:12:26.897Z,99979.00
2019-06-26T03:13:33.185Z,99982.00
2019-06-26T03:14:38.611Z,99984.00
2019-06-26T03:15:44.732Z,99988.00
2019-06-26T03:16:49.870Z,99984.00
2019-06-26T03:17:56.027Z,99983.00
2019-06-26T03:19:01.220Z,99980.00
2019-06-26T03:20:08.101Z,99981.00
2019-06-26T03:21:13.594Z,99987.00
2019-06-26T03:22:20.329Z,99992.00
2019-06-26T03:23:25.572Z,99986.00
2019-06-26T03:24:31.780Z,99991.00
2019-06-26T03:25:37.306Z,99992.00
2019-06-26T03:26:44.238Z,99989.00
2019-06-26T03:27:49.558Z,99989.00
2019-06-26T03:28:55.390Z,99993.00
2019-06-26T03:30:00.427Z,99995.00
2019-06-26T03:31:07.457Z,99995.00
2019-06-26T03:32:14.822Z,99996.00
2019-06-26T03:33:23.165Z,99997.00
2019-06-26T03:34:28.977Z,99993.00
2019-06-26T03:35:35.960Z,99993.00
2019-06-26T03:36:41.241Z,99998.00
2019-06-26T03:37:48.050Z,99996.00
2019-06-26T03:38:53.743Z,100009.00
2019-06-26T03:40:00.405Z,99999.00
2019-06-26T03:41:05.814Z,100008.00
2019-06-26T03:42:12.049Z,100002.00
2019-06-26T03:43:17.588Z,99998.00
2019-06-26T03:44:23.783Z,100012.00
2019-06-26T03:45:29.247Z,100008.00
2019-06-26T03:46:35.548Z,100010.00
2019-06-26T03:47:40.929Z,100013.00
2019-06-26T03:48:46.759Z,100008.00
2019-06-26T03:49:52.031Z,100007.00
2019-06-26T03:50:58.014Z,100012.00
2019-06-26T03:52:03.116Z,100021.00
2019-06-26T03:53:09.500Z,100023.00
2019-06-26T03:54:14.618Z,100022.00
2019-06-26T03:55:20.640Z,100019.00
2019-06-26T03:56:25.972Z,100024.00
2019-06-26T03:57:35.351Z,100026.00
2019-06-26T03:58:39.444Z,100026.00
2019-06-26T03:59:45.719Z,100022.00
2019-06-26T04:00:50.885Z,100028.00
2019-06-26T04:01:57.329Z,100031.00
2019-06-26T04:03:03.007Z,100030.00
2019-06-26T04:04:09.437Z,100032.00
2019-06-26T04:05:14.907Z,100029.00
2019-06-26T04:06:21.339Z,100036.00
2019-06-26T04:07:26.756Z,100035.00
2019-06-26T04:08:32.914Z,100029.00
2019-06-26T04:09:37.961Z,100045.00
2019-06-26T04:10:43.913Z,100044.00
2019-06-26T04:11:49.429Z,100039.00
2019-06-26T04:12:56.094Z,100036.00
2019-06-26T04:14:01.126Z,100041.00
2019-06-26T04:15:07.790Z,100037.00
2019-06-26T04:16:13.802Z,100043.00
2019-06-26T04:17:19.719Z,100041.00
2019-06-26T04:18:25.365Z,100048.00
2019-06-26T04:19:31.534Z,100042.00
2019-06-26T04:20:36.647Z,100044.00
2019-06-26T04:21:42.584Z,100046.00
2019-06-26T04:22:47.923Z,100048.00
2019-06-26T04:23:54.350Z,100043.00
2019-06-26T04:24:59.451Z,100037.00
2019-06-26T04:26:05.861Z,100041.00
2019-06-26T04:27:11.604Z,100041.00
2019-06-26T04:28:17.607Z,100036.00
2019-06-26T04:29:23.150Z,100046.00
2019-06-26T04:30:29.333Z,100052.00
2019-06-26T04:31:34.751Z,100051.00
2019-06-26T04:32:40.714Z,100049.00
2019-06-26T04:33:45.681Z,100041.00
2019-06-26T04:34:54.505Z,100044.00
2019-06-26T04:35:58.883Z,100050.00
2019-06-26T04:37:04.778Z,100054.00
2019-06-26T04:38:09.983Z,100053.00
2019-06-26T04:39:16.240Z,100047.00
2019-06-26T04:40:21.648Z,100050.00
2019-06-26T04:41:28.207Z,100055.00
2019-06-26T04:42:34.066Z,100055.00
2019-06-26T04:43:40.583Z,100054.00
2019-06-26T04:44:45.619Z,100059.00
2019-06-26T04:45:58.219Z,100059.00
2019-06-26T04:46:58.842Z,100060.00
2019-06-26T04:48:07.187Z,100065.00
2019-06-26T04:49:12.392Z,100062.00
2019-06-26T04:50:19.112Z,100060.00
2019-06-26T04:51:24.231Z,100062.00
2019-06-26T04:52:30.210Z,100065.00
2019-06-26T04:53:35.757Z,100066.00
2019-06-26T04:54:41.508Z,100066.00
2019-06-26T04:55:46.935Z,100062.00
2019-06-26T04:56:53.077Z,100064.00
2019-06-26T04:57:58.099Z,100069.00
2019-06-26T04:59:04.067Z,100073.00
2019-06-26T05:00:10.537Z,100057.00
2019-06-26T05:01:16.811Z,100076.00
2019-06-26T05:02:22.210Z,100063.00
2019-06-26T05:03:28.568Z,100068.00
2019-06-26T05:04:34.271Z,100066.00
2019-06-26T05:05:40.568Z,100066.00
2019-06-26T05:06:46.092Z,100058.00
2019-06-26T05:07:53.804Z,100069.00
2019-06-26T05:08:59.003Z,100076.00
2019-06-26T05:10:05.324Z,100069.00
2019-06-26T05:11:12.867Z,100073.00
2019-06-26T05:12:18.228Z,100067.00
2019-06-26T05:13:23.961Z,100061.00
2019-06-26T05:14:30.491Z,100066.00
2019-06-26T05:15:35.941Z,100077.00
2019-06-26T05:16:41.841Z,100075.00
2019-06-26T05:17:47.021Z,100076.00
2019-06-26T05:18:53.299Z,100075.00
2019-06-26T05:19:58.319Z,100068.00
2019-06-26T05:21:04.540Z,100067.00
2019-06-26T05:22:10.386Z,100066.00
2019-06-26T05:23:16.234Z,100075.00
2019-06-26T05:24:22.273Z,100065.00
2019-06-26T05:25:28.215Z,100076.00
2019-06-26T05:26:33.756Z,100079.00
2019-06-26T05:27:39.974Z,100067.00
2019-06-26T05:28:45.065Z,100080.00
2019-06-26T05:29:54.287Z,100076.00
2019-06-26T05:30:59.068Z,100069.00
2019-06-26T05:32:05.410Z,100076.00
2019-06-26T05:33:10.508Z,100081.00
2019-06-26T05:34:16.762Z,100081.00
2019-06-26T05:35:22.639Z,100074.00
2019-06-26T05:36:28.847Z,100081.00
2019-06-26T05:37:34.499Z,100073.00
2019-06-26T05:38:40.508Z,100076.00
2019-06-26T05:39:46.219Z,100075.00
2019-06-26T05:40:52.753Z,100081.00
2019-06-26T05:41:58.238Z,100078.00
2019-06-26T05:43:06.182Z,100074.00
2019-06-26T05:44:12.280Z,100082.00
2019-06-26T05:45:18.911Z,100082.00
2019-06-26T05:46:30.880Z,100079.00
2019-06-26T05:47:31.856Z,100082.00
2019-06-26T05:48:37.152Z,100076.00
2019-06-26T05:49:44.120Z,100086.00
2019-06-26T05:50:49.960Z,100083.00
2019-06-26T05:51:56.589Z,100080.00
2019-06-26T05:53:02.100Z,100090.00
2019-06-26T05:54:08.063Z,100085.00
2019-06-26T05:55:14.349Z,100094.00
2019-06-26T05:56:20.596Z,100095.00
2019-06-26T05:57:25.750Z,100098.00
2019-06-26T05:58:31.703Z,100098.00
2019-06-26T05:59:37.095Z,100095.00
2019-06-26T06:00:43.336Z,100092.00
2019-06-26T06:01:48.541Z,100097.00
2019-06-26T06:02:54.658Z,100092.00
2019-06-26T06:04:00.189Z,100103.00
2019-06-26T06:05:06.675Z,100094.00
2019-06-26T06:06:12.132Z,100102.00
2019-06-26T06:07:18.292Z,100096.00
2019-06-26T06:08:23.669Z,100098.00
2019-06-26T06:09:30.000Z,100097.00
2019-06-26T06:10:35.479Z,100101.00
2019-06-26T06:11:42.183Z,100106.00
2019-06-26T06:12:47.920Z,100108.00
2019-06-26T06:13:53.816Z,100108.00
2019-06-26T06:14:59.233Z,100106.00
2019-06-26T06:16:06.592Z,100112.00
2019-06-26T06:17:12.778Z,100110.00
2019-06-26T06:18:19.287Z,100113.00
2019-06-26T06:19:24.858Z,100105.00
2019-06-26T06:20:39.465Z,100110.00
2019-06-26T06:21:44.607Z,100106.00
2019-06-26T06:22:50.798Z,100102.00
2019-06-26T06:23:56.624Z,100102.00
2019-06-26T06:25:03.102Z,100102.00
2019-06-26T06:26:08.685Z,100102.00
2019-06-26T06:27:14.510Z,100104.00
2019-06-26T06:28:19.760Z,100098.00
2019-06-26T06:29:25.965Z,100101.00
2019-06-26T06:30:31.095Z,100101.00
2019-06-26T06:31:37.474Z,100102.00
2019-06-26T06:32:42.647Z,100097.00
2019-06-26T06:33:48.749Z,100104.00
2019-06-26T06:34:53.934Z,100101.00
2019-06-26T06:35:59.985Z,100112.00
2019-06-26T06:37:05.487Z,100105.00
2019-06-26T06:38:11.656Z,100104.00
2019-06-26T06:39:17.670Z,100110.00
2019-06-26T06:40:23.735Z,100104.00
2019-06-26T06:41:29.070Z,100100.00
2019-06-26T06:42:35.419Z,100109.00
2019-06-26T06:43:40.958Z,100111.00
2019-06-26T06:44:47.488Z,100118.00
2019-06-26T06:45:53.015Z,100112.00
2019-06-26T06:47:03.705Z,100117.00
2019-06-26T06:48:06.013Z,100124.00
2019-06-26T06:49:12.231Z,100124.00
2019-06-26T06:50:17.536Z,100126.00
2019-06-26T06:51:23.548Z,100118.00
2019-06-26T06:52:28.642Z,100117.00
2019-06-26T06:53:34.579Z,100131.00
2019-06-26T06:54:39.978Z,100119.00
2019-06-26T06:55:45.959Z,100122.00
2019-06-26T06:56:53.151Z,100125.00
2019-06-26T06:57:59.342Z,100124.00
2019-06-26T06:59:05.162Z,100119.00
2019-06-26T07:00:11.342Z,100124.00
2019-06-26T07:01:17.067Z,100128.00
2019-06-26T07:02:23.318Z,100122.00
2019-06-26T07:03:28.689Z,100121.00
2019-06-26T07:04:34.692Z,100120.00
2019-06-26T07:05:39.938Z,100117.00
2019-06-26T07:06:46.234Z,100129.00
2019-06-26T07:07:51.731Z,100128.00
2019-06-26T07:08:57.952Z,100124.00
2019-06-26T07:10:03.789Z,100125.00
2019-06-26T07:11:09.971Z,100123.00
2019-06-26T07:12:15.781Z,100121.00
2019-06-26T07:13:22.480Z,100119.00
2019-06-26T07:14:27.976Z,100124.00
2019-06-26T07:15:33.959Z,100125.00
2019-06-26T07:16:39.374Z,100125.00
2019-06-26T07:17:46.392Z,100126.00
2019-06-26T07:18:52.164Z,100127.00
2019-06-26T07:19:58.092Z,100119.00
2019-06-26T07:21:03.298Z,100132.00
2019-06-26T07:22:09.213Z,100135.00
2019-06-26T07:23:14.679Z,100128.00
2019-06-26T07:24:20.899Z,100134.00
2019-06-26T07:25:26.021Z,100138.00
2019-06-26T07:26:32.567Z,100130.00
2019-06-26T07:27:37.786Z,100126.00
2019-06-26T07:28:43.793Z,100131.00
2019-06-26T07:29:49.029Z,100140.00
2019-06-26T07:30:55.275Z,100136.00
2019-06-26T07:32:01.202Z,100142.00
2019-06-26T07:33:07.637Z,100148.00
2019-06-26T07:34:12.869Z,100147.00
2019-06-26T07:35:19.033Z,100143.00
2019-06-26T07:36:24.189Z,100139.00
2019-06-26T07:37:30.711Z,100147.00
2019-06-26T07:38:36.351Z,100145.00
2019-06-26T07:39:42.332Z,100147.00
2019-06-26T07:40:48.010Z,100147.00
2019-06-26T07:41:54.900Z,100148.00
2019-06-26T07:43:00.297Z,100149.00
2019-06-26T07:44:06.868Z,100151.00
2019-06-26T07:45:13.327Z,100149.00
2019-06-26T07:46:19.591Z,100152.00
2019-06-26T07:47:41.564Z,100161.00
2019-06-26T07:48:32.473Z,100155.00
2019-06-26T07:49:37.889Z,100156.00
2019-06-26T07:50:44.551Z,100164.00
2019-06-26T07:51:49.687Z,100164.00
2019-06-26T07:52:55.607Z,100164.00
2019-06-26T07:54:01.984Z,100166.00
2019-06-26T07:55:11.903Z,100167.00
2019-06-26T07:56:16.588Z,100169.00
2019-06-26T07:57:22.687Z,100164.00
2019-06-26T07:58:28.295Z,100166.00
2019-06-26T07:59:34.777Z,100174.00
2019-06-26T08:00:39.944Z,100179.00
2019-06-26T08:01:46.233Z,100171.00
2019-06-26T08:02:51.884Z,100175.00
2019-06-26T08:03:57.890Z,100176.00
2019-06-26T08:05:03.070Z,100177.00
2019-06-26T08:06:09.278Z,100161.00
2019-06-26T08:07:14.823Z,100172.00
2019-06-26T08:08:21.401Z,100176.00
2019-06-26T08:09:26.666Z,100171.00
2019-06-26T08:10:32.917Z,100165.00
2019-06-26T08:11:38.058Z,100173.00
2019-06-26T08:12:44.687Z,100168.00
2019-06-26T08:13:50.180Z,100172.00
2019-06-26T08:14:56.486Z,100181.00
2019-06-26T08:16:02.467Z,100172.00
2019-06-26T08:17:08.523Z,100177.00
2019-06-26T08:18:14.022Z,100172.00
2019-06-26T08:19:20.022Z,100178.00
2019-06-26T08:20:25.595Z,100172.00
2019-06-26T08:21:31.866Z,100181.00
2019-06-26T08:22:37.342Z,100178.00
2019-06-26T08:23:43.616Z,100180.00
2019-06-26T08:24:49.057Z,100181.00
2019-06-26T08:25:55.552Z,100186.00
2019-06-26T08:27:01.009Z,100183.00
2019-06-26T08:28:07.237Z,100182.00
2019-06-26T08:29:12.678Z,100183.00
2019-06-26T08:30:19.767Z,100186.00
2019-06-26T08:31:25.460Z,100179.00
2019-06-26T08:32:32.026Z,100189.00
2019-06-26T08:33:37.511Z,100185.00
2019-06-26T08:34:43.791Z,100193.00
2019-06-26T08:35:49.044Z,100189.00
2019-06-26T08:36:55.292Z,100189.00
2019-06-26T08:38:11.041Z,100188.00
2019-06-26T08:39:09.191Z,100186.00
2019-06-26T08:40:16.250Z,100190.00
2019-06-26T08:41:23.087Z,100202.00
2019-06-26T08:42:28.181Z,100198.00
2019-06-26T08:43:34.407Z,100199.00
2019-06-26T08:44:39.866Z,100195.00
2019-06-26T08:45:46.266Z,100200.00
2019-06-26T08:46:51.791Z,100199.00
2019-06-26T08:47:58.140Z,100194.00
2019-06-26T08:49:03.743Z,100194.00
2019-06-26T08:50:10.361Z,100198.00
2019-06-26T08:51:15.456Z,100202.00
2019-06-26T08:52:22.081Z,100199.00
2019-06-26T08:53:27.292Z,100198.00
2019-06-26T08:54:33.769Z,100196.00
2019-06-26T08:55:39.170Z,100195.00
2019-06-26T08:56:45.329Z,100190.00
2019-06-26T08:57:50.554Z,100193.00
2019-06-26T08:58:56.529Z,100191.00
2019-06-26T09:00:01.600Z,100190.00
2019-06-26T09:01:08.227Z,100203.00
2019-06-26T09:02:13.710Z,100191.00
2019-06-26T09:03:21.090Z,100200.00
2019-06-26T09:04:26.975Z,100195.00
2019-06-26T09:05:47.620Z,100201.00
2019-06-26T09:06:40.655Z,100207.00
2019-06-26T09:07:46.737Z,100198.00
2019-06-26T09:08:52.215Z,100209.00
2019-06-26T09:09:58.554Z,100202.00
2019-06-26T09:11:04.293Z,100205.00
2019-06-26T09:12:10.464Z,100200.00
2019-06-26T09:13:15.661Z,100211.00
2019-06-26T09:14:21.585Z,100203.00
2019-06-26T09:15:26.745Z,100203.00
2019-06-26T09:16:32.945Z,100201.00
2019-06-26T09:17:38.438Z,100206.00
2019-06-26T09:18:44.946Z,100205.00
2019-06-26T09:19:50.230Z,100207.00
2019-06-26T09:20:56.515Z,100200.00
2019-06-26T09:22:02.829Z,100207.00
2019-06-26T09:23:09.551Z,100205.00
2019-06-26T09:24:14.687Z,100208.00
2019-06-26T09:25:22.568Z,100206.00
2019-06-26T09:26:28.710Z,100204.00
2019-06-26T09:27:34.667Z,100213.00
2019-06-26T09:28:40.714Z,100215.00
2019-06-26T09:29:47.390Z,100220.00
2019-06-26T09:30:52.605Z,100220.00
2019-06-26T09:31:59.295Z,100215.00
2019-06-26T09:33:04.800Z,100219.00
2019-06-26T09:34:10.880Z,100217.00
2019-06-26T09:35:16.171Z,100221.00
2019-06-26T09:36:22.737Z,100219.00
2019-06-26T09:37:28.319Z,100213.00
2019-06-26T09:38:34.308Z,100220.00
2019-06-26T09:39:40.067Z,100223.00
2019-06-26T09:40:46.008Z,100219.00
2019-06-26T09:41:51.586Z,100225.00
2019-06-26T09:42:57.799Z,100228.00
2019-06-26T09:44:04.021Z,100227.00
2019-06-26T09:45:10.411Z,100225.00
2019-06-26T09:46:15.640Z,100222.00
2019-06-26T09:47:21.939Z,100222.00
2019-06-26T09:48:27.065Z,100223.00
2019-06-26T09:49:33.027Z,100213.00
2019-06-26T09:50:38.559Z,100220.00
2019-06-26T09:51:45.289Z,100210.00
2019-06-26T09:52:51.166Z,100213.00
2019-06-26T09:53:57.776Z,100218.00
2019-06-26T09:55:02.821Z,100214.00
2019-06-26T09:56:09.192Z,100211.00
2019-06-26T09:57:14.617Z,100211.00
2019-06-26T09:58:20.874Z,100213.00
2019-06-26T09:59:26.577Z,100223.00
2019-06-26T10:00:32.773Z,100211.00
2019-06-26T10:01:38.298Z,100212.00
2019-06-26T10:02:44.586Z,100218.00
2019-06-26T10:03:49.781Z,100213.00
2019-06-26T10:04:55.819Z,100205.00
2019-06-26T10:06:01.792Z,100204.00
2019-06-26T10:07:07.841Z,100207.00
2019-06-26T10:08:14.002Z,100206.00
2019-06-26T10:09:20.023Z,100199.00
2019-06-26T10:10:25.546Z,100204.00
2019-06-26T10:11:31.848Z,100202.00
2019-06-26T10:12:37.221Z,100200.00
2019-06-26T10:13:43.521Z,100201.00
2019-06-26T10:14:49.104Z,100197.00
2019-06-26T10:15:55.669Z,100205.00
2019-06-26T10:17:01.037Z,100204.00
2019-06-26T10:18:07.031Z,100202.00
2019-06-26T10:19:12.629Z,100210.00
2019-06-26T10:20:20.169Z,100205.00
2019-06-26T10:21:25.642Z,100206.00
2019-06-26T10:22:31.860Z,100194.00
2019-06-26T10:23:37.010Z,100195.00
2019-06-26T10:24:43.151Z,100209.00
2019-06-26T10:25:48.494Z,100204.00
2019-06-26T10:26:54.489Z,100200.00
2019-06-26T10:28:00.068Z,100203.00
2019-06-26T10:29:06.136Z,100202.00
2019-06-26T10:30:12.807Z,100207.00
2019-06-26T10:31:18.779Z,100205.00
2019-06-26T10:32:24.158Z,100205.00
2019-06-26T10:33:30.422Z,100207.00
2019-06-26T10:34:35.874Z,100200.00
2019-06-26T10:35:41.954Z,100212.00
2019-06-26T10:36:47.219Z,100205.00
2019-06-26T10:37:53.539Z,100205.00
2019-06-26T10:38:58.595Z,100202.00
2019-06-26T10:40:06.508Z,100205.00
2019-06-26T10:41:11.698Z,100213.00
2019-06-26T10:42:17.764Z,100209.00
2019-06-26T10:43:23.131Z,100213.00
2019-06-26T10:44:29.416Z,100219.00
2019-06-26T10:45:36.379Z,100214.00
2019-06-26T10:46:43.032Z,100218.00
2019-06-26T10:47:48.093Z,100224.00
2019-06-26T10:48:54.308Z,100224.00
2019-06-26T10:50:00.188Z,100229.00
2019-06-26T10:51:06.174Z,100227.00
2019-06-26T10:52:11.312Z,100227.00
2019-06-26T10:53:17.267Z,100230.00
2019-06-26T10:54:22.628Z,100224.00
2019-06-26T10:55:28.546Z,100227.00
2019-06-26T10:56:34.032Z,100231.00
2019-06-26T10:57:40.240Z,100223.00
2019-06-26T10:58:46.037Z,100221.00
2019-06-26T10:59:55.541Z,100221.00
2019-06-26T11:00:59.149Z,100216.00
2019-06-26T11:02:05.454Z,100223.00
2019-06-26T11:03:12.888Z,100224.00
2019-06-26T11:04:19.525Z,100222.00
2019-06-26T11:05:26.323Z,100218.00
2019-06-26T11:06:36.906Z,100221.00
2019-06-26T11:07:41.203Z,100219.00
2019-06-26T11:08:47.398Z,100225.00
2019-06-26T11:09:54.267Z,100212.00
2019-06-26T11:11:01.143Z,100221.00
2019-06-26T11:12:06.681Z,100227.00
2019-06-26T11:13:13.008Z,100206.00
2019-06-26T11:14:18.178Z,100219.00
2019-06-26T11:15:24.660Z,100228.00
2019-06-26T11:16:30.082Z,100222.00
2019-06-26T11:17:36.622Z,100222.00
2019-06-26T11:18:41.797Z,100225.00
2019-06-26T11:19:47.946Z,100218.00
2019-06-26T11:20:53.523Z,100213.00
2019-06-26T11:21:59.796Z,100210.00
2019-06-26T11:23:05.010Z,100216.00
2019-06-26T11:24:11.357Z,100208.00
2019-06-26T11:25:19.635Z,100212.00
2019-06-26T11:26:25.889Z,100219.00
2019-06-26T11:27:31.013Z,100210.00
2019-06-26T11:28:37.113Z,100214.00
2019-06-26T11:29:45.425Z,100223.00
2019-06-26T11:30:51.747Z,100228.00
2019-06-26T11:31:57.370Z,100216.00
2019-06-26T11:33:03.668Z,100228.00
2019-06-26T11:34:08.856Z,100218.00
2019-06-26T11:35:15.368Z,100226.00
2019-06-26T11:36:20.533Z,100220.00
2019-06-26T11:37:26.758Z,100226.00
2019-06-26T11:38:32.237Z,100225.00
2019-06-26T11:39:38.433Z,100219.00
2019-06-26T11:40:43.859Z,100220.00
2019-06-26T11:41:49.929Z,100218.00
2019-06-26T11:42:55.375Z,100229.00
2019-06-26T11:44:01.675Z,100223.00
2019-06-26T11:45:08.470Z,100230.00
2019-06-26T11:46:14.468Z,100230.00
2019-06-26T11:47:19.728Z,100229.00
2019-06-26T11:48:25.662Z,100223.00
2019-06-26T11:49:31.206Z,100224.00
2019-06-26T11:50:37.705Z,100225.00
2019-06-26T11:51:42.839Z,100223.00
2019-06-26T11:52:49.786Z,100225.00
2019-06-26T11:53:58.864Z,100224.00
2019-06-26T11:55:04.054Z,100224.00
2019-06-26T11:56:10.300Z,100217.00
2019-06-26T11:57:16.620Z,100220.00
2019-06-26T11:58:22.082Z,100216.00
2019-06-26T11:59:28.282Z,100224.00
2019-06-26T12:00:33.735Z,100223.00
2019-06-26T12:01:39.645Z,100225.00
2019-06-26T12:02:45.877Z,100224.00
2019-06-26T12:03:53.259Z,100230.00
2019-06-26T12:04:58.436Z,100228.00
2019-06-26T12:06:17.986Z,100225.00
2019-06-26T12:07:11.656Z,100226.00
2019-06-26T12:08:18.636Z,100227.00
2019-06-26T12:09:24.722Z,100225.00
2019-06-26T12:10:30.654Z,100227.00
2019-06-26T12:11:36.257Z,100228.00
2019-06-26T12:12:42.698Z,100225.00
2019-06-26T12:13:48.595Z,100229.00
2019-06-26T12:14:54.766Z,100230.00
2019-06-26T12:15:59.900Z,100230.00
2019-06-26T12:17:06.050Z,100223.00
2019-06-26T12:18:11.236Z,100227.00
2019-06-26T12:19:19.859Z,100215.00
2019-06-26T12:20:24.292Z,100228.00
2019-06-26T12:21:30.272Z,100236.00
2019-06-26T12:22:36.104Z,100228.00
2019-06-26T12:23:42.982Z,100226.00
2019-06-26T12:24:48.489Z,100223.00
2019-06-26T12:25:54.724Z,100221.00
2019-06-26T12:27:00.525Z,100224.00
2019-06-26T12:28:06.966Z,100218.00
2019-06-26T12:29:12.862Z,100227.00
2019-06-26T12:30:20.231Z,100217.00
2019-06-26T12:31:25.979Z,100218.00
2019-06-26T12:32:41.494Z,100225.00
2019-06-26T12:33:41.526Z,100221.00
2019-06-26T12:34:47.422Z,100226.00
2019-06-26T12:35:52.972Z,100238.00
2019-06-26T12:36:59.299Z,100231.00
2019-06-26T12:38:05.106Z,100239.00
2019-06-26T12:39:11.097Z,100226.00